createdAt,value
2018-11-10T00:00:22.242Z,12.90
2018-11-10T00:02:51.352Z,13.17
2018-11-10T00:05:20.824Z,12.80
2018-11-10T00:07:49.619Z,12.20
2018-11-10T00:10:19.135Z,12.33
2018-11-10T00:12:48.421Z,11.60
2018-11-10T00:15:17.241Z,12.00
2018-11-10T00:17:46.420Z,11.50
2018-11-10T00:20:15.122Z,11.90
2018-11-10T00:22:43.779Z,11.67
2018-11-10T00:25:14.911Z,12.13
2018-11-10T00:27:44.718Z,11.07
2018-11-10T00:30:15.056Z,11.30
2018-11-10T00:32:44.592Z,11.50
2018-11-10T00:35:13.424Z,11.43
2018-11-10T00:37:42.306Z,11.70
2018-11-10T00:40:13.555Z,11.80
2018-11-10T00:42:42.602Z,11.03
2018-11-10T00:45:11.296Z,11.23
2018-11-10T00:47:40.071Z,11.57
2018-11-10T00:50:12.189Z,11.05
2018-11-10T00:52:40.997Z,10.87
2018-11-10T00:55:09.972Z,10.87
2018-11-10T00:57:38.697Z,11.00
2018-11-10T01:00:09.562Z,11.43
2018-11-10T01:02:38.306Z,10.32
2018-11-10T01:05:07.142Z,10.80
2018-11-10T01:07:35.823Z,10.73
2018-11-10T01:10:04.596Z,10.17
2018-11-10T01:12:33.364Z,10.80
2018-11-10T01:15:02.203Z,10.50
2018-11-10T01:17:30.886Z,10.27
2018-11-10T01:19:59.545Z,9.70
2018-11-10T01:22:28.210Z,9.87
2018-11-10T01:24:56.956Z,9.30
2018-11-10T01:27:25.626Z,9.73
2018-11-10T01:29:54.272Z,10.03
2018-11-10T01:32:23.596Z,9.97
2018-11-10T01:34:52.284Z,10.13
2018-11-10T01:37:20.964Z,9.00
2018-11-10T01:39:49.684Z,9.37
2018-11-10T01:42:18.371Z,9.80
2018-11-10T01:44:47.083Z,9.53
2018-11-10T01:47:15.714Z,9.13
2018-11-10T01:49:44.388Z,9.77
2018-11-10T01:52:13.062Z,9.77
2018-11-10T01:54:41.739Z,9.67
2018-11-10T01:57:10.504Z,10.03
2018-11-10T01:59:39.167Z,9.37
2018-11-10T02:02:12.131Z,10.23
2018-11-10T02:04:40.858Z,9.33
2018-11-10T02:07:09.502Z,9.77
2018-11-10T02:09:38.199Z,10.00
2018-11-10T02:12:06.877Z,9.60
2018-11-10T02:14:35.624Z,10.23
2018-11-10T02:17:04.340Z,9.97
2018-11-10T02:19:33.015Z,9.50
2018-11-10T02:22:01.766Z,10.00
2018-11-10T02:24:30.466Z,9.73
2018-11-10T02:26:59.129Z,10.23
2018-11-10T02:29:27.792Z,9.33
2018-11-10T02:31:56.428Z,9.73
2018-11-10T02:34:25.067Z,9.67
2018-11-10T02:36:53.751Z,9.30
2018-11-10T02:39:22.393Z,9.43
2018-11-10T02:41:51.062Z,9.67
2018-11-10T02:44:19.784Z,10.33
2018-11-10T02:46:48.508Z,9.50
2018-11-10T02:49:17.147Z,9.13
2018-11-10T02:51:45.847Z,9.27
2018-11-10T02:54:14.550Z,9.57
2018-11-10T02:56:43.229Z,9.10
2018-11-10T02:59:11.916Z,9.67
2018-11-10T03:01:40.572Z,9.57
2018-11-10T03:04:09.272Z,9.70
2018-11-10T03:06:37.979Z,9.33
2018-11-10T03:09:07.904Z,10.33
2018-11-10T03:11:36.866Z,9.53
2018-11-10T03:14:05.731Z,9.33
2018-11-10T03:16:34.541Z,8.90
2018-11-10T03:19:03.229Z,9.03
2018-11-10T03:21:32.083Z,9.27
2018-11-10T03:24:00.748Z,9.03
2018-11-10T03:26:29.411Z,9.70
2018-11-10T03:28:58.090Z,9.07
2018-11-10T03:31:26.766Z,9.30
2018-11-10T03:33:55.453Z,8.77
2018-11-10T03:36:24.084Z,9.47
2018-11-10T03:38:52.767Z,8.50
2018-11-10T03:41:21.435Z,8.43
2018-11-10T03:43:50.474Z,8.30
2018-11-10T03:46:19.703Z,8.63
2018-11-10T03:48:49.474Z,8.73
2018-11-10T03:51:18.304Z,8.90
2018-11-10T03:53:47.467Z,9.20
2018-11-10T03:56:16.224Z,8.67
2018-11-10T03:58:44.924Z,8.30
2018-11-10T04:01:13.596Z,8.53
2018-11-10T04:03:42.344Z,9.07
2018-11-10T04:06:10.986Z,8.90
2018-11-10T04:08:39.641Z,8.67
2018-11-10T04:11:08.379Z,9.43
2018-11-10T04:13:37.035Z,8.57
2018-11-10T04:16:05.803Z,8.80
2018-11-10T04:18:34.428Z,8.30
2018-11-10T04:21:03.132Z,8.23
2018-11-10T04:23:31.800Z,9.10
2018-11-10T04:26:00.482Z,8.37
2018-11-10T04:28:29.119Z,7.83
2018-11-10T04:30:57.817Z,8.30
2018-11-10T04:33:26.488Z,8.90
2018-11-10T04:35:55.135Z,8.13
2018-11-10T04:38:23.765Z,7.90
2018-11-10T04:40:52.392Z,8.40
2018-11-10T04:43:21.044Z,8.00
2018-11-10T04:45:49.787Z,8.10
2018-11-10T04:48:18.477Z,8.00
2018-11-10T04:50:47.274Z,8.73
2018-11-10T04:53:15.941Z,7.80
2018-11-10T04:55:44.604Z,7.20
2018-11-10T04:58:13.270Z,7.90
2018-11-10T05:00:41.592Z,8.00
2018-11-10T05:03:10.272Z,7.60
2018-11-10T05:05:38.964Z,7.50
2018-11-10T05:08:07.670Z,7.17
2018-11-10T05:10:36.303Z,7.73
2018-11-10T05:13:05.083Z,7.83
2018-11-10T05:15:34.107Z,7.57
2018-11-10T05:18:02.800Z,7.20
2018-11-10T05:20:31.113Z,7.10
2018-11-10T05:22:59.860Z,7.30
2018-11-10T05:25:28.147Z,7.17
2018-11-10T05:27:56.833Z,6.63
2018-11-10T05:30:25.527Z,6.50
2018-11-10T05:32:54.206Z,6.60
2018-11-10T05:35:22.885Z,6.33
2018-11-10T05:37:51.532Z,6.33
2018-11-10T05:40:20.193Z,6.87
2018-11-10T05:42:48.506Z,6.20
2018-11-10T05:45:17.182Z,6.20
2018-11-10T05:47:45.886Z,6.83
2018-11-10T05:50:14.571Z,6.27
2018-11-10T05:52:43.284Z,6.50
2018-11-10T05:55:11.930Z,6.70
2018-11-10T05:57:40.783Z,6.80
2018-11-10T06:00:11.361Z,6.30
2018-11-10T06:02:39.711Z,6.87
2018-11-10T06:05:08.018Z,6.77
2018-11-10T06:07:36.664Z,6.37
2018-11-10T06:10:06.573Z,6.50
2018-11-10T06:12:35.207Z,6.50
2018-11-10T06:15:03.935Z,6.03
2018-11-10T06:17:32.235Z,6.50
2018-11-10T06:20:00.900Z,6.67
2018-11-10T06:22:29.333Z,6.30
2018-11-10T06:24:57.993Z,5.90
2018-11-10T06:27:27.239Z,5.47
2018-11-10T06:29:55.950Z,6.00
2018-11-10T06:35:30.503Z,5.93
2018-11-10T06:38:02.121Z,6.63
2018-11-10T06:40:31.288Z,5.77
2018-11-10T06:43:13.667Z,6.00
2018-11-10T06:45:44.991Z,6.00
2018-11-10T06:48:14.420Z,5.93
2018-11-10T06:50:43.437Z,5.50
2018-11-10T06:53:13.177Z,5.97
2018-11-10T06:55:43.814Z,7.13
2018-11-10T06:58:36.465Z,6.60
2018-11-10T07:03:35.469Z,8.20
2018-11-10T07:06:05.491Z,10.27
2018-11-10T07:08:34.788Z,9.40
2018-11-10T07:11:18.901Z,10.07
2018-11-10T07:13:49.837Z,10.13
2018-11-10T07:16:21.101Z,10.37
2018-11-10T07:18:51.078Z,8.87
2018-11-10T07:21:20.419Z,9.70
2018-11-10T07:23:49.911Z,9.17
2018-11-10T07:26:18.650Z,9.00
2018-11-10T07:28:47.527Z,10.53
2018-11-10T07:31:16.264Z,10.23
2018-11-10T07:33:44.922Z,9.43
2018-11-10T07:36:13.635Z,10.20
2018-11-10T07:38:42.376Z,9.67
2018-11-10T07:41:11.088Z,9.27
2018-11-10T07:43:39.767Z,9.73
2018-11-10T07:46:08.526Z,8.97
2018-11-10T07:48:37.239Z,8.53
2018-11-10T07:51:06.064Z,9.87
2018-11-10T07:53:34.898Z,8.23
2018-11-10T07:56:03.650Z,9.13
2018-11-10T07:58:33.218Z,8.87
2018-11-10T08:01:02.725Z,8.97
2018-11-10T08:03:32.170Z,9.30
2018-11-10T08:06:00.886Z,8.60
2018-11-10T08:08:29.568Z,8.47
2018-11-10T08:11:01.624Z,9.80
2018-11-10T08:13:31.314Z,10.57
2018-11-10T08:15:59.988Z,10.33
2018-11-10T08:18:28.747Z,9.93
2018-11-10T08:20:57.416Z,9.17
2018-11-10T08:23:26.124Z,9.90
2018-11-10T08:25:54.795Z,10.20
2018-11-10T08:28:23.841Z,10.27
2018-11-10T08:30:52.488Z,10.37
2018-11-10T08:33:21.190Z,9.47
2018-11-10T08:35:49.923Z,9.97
2018-11-10T08:38:18.638Z,10.50
2018-11-10T08:40:47.315Z,9.97
2018-11-10T08:43:15.957Z,9.53
2018-11-10T08:45:44.682Z,9.53
2018-11-10T08:48:14.983Z,9.53
2018-11-10T08:50:43.627Z,9.63
2018-11-10T08:53:12.289Z,9.20
2018-11-10T08:55:40.963Z,9.50
2018-11-10T08:58:09.656Z,8.97
2018-11-10T09:00:38.288Z,9.33
2018-11-10T09:03:07.199Z,10.20
2018-11-10T09:05:35.923Z,9.27
2018-11-10T09:08:04.609Z,9.70
2018-11-10T09:10:33.352Z,10.07
2018-11-10T09:13:02.062Z,9.40
2018-11-10T09:15:30.747Z,9.60
2018-11-10T09:17:59.431Z,9.60
2018-11-10T09:20:28.097Z,9.63
2018-11-10T09:22:56.756Z,9.83
2018-11-10T09:25:25.436Z,10.50
2018-11-10T09:27:54.159Z,9.60
2018-11-10T09:30:22.893Z,10.93
2018-11-10T09:32:51.536Z,10.50
2018-11-10T09:35:20.175Z,9.80
2018-11-10T09:37:48.807Z,11.30
2018-11-10T09:40:17.857Z,11.20
2018-11-10T09:42:46.667Z,10.57
2018-11-10T09:45:16.493Z,10.50
2018-11-10T09:47:45.185Z,11.77
2018-11-10T09:50:19.120Z,12.23
2018-11-10T09:52:48.858Z,10.87
2018-11-10T09:55:18.107Z,10.60
2018-11-10T09:57:46.840Z,11.13
2018-11-10T10:00:17.894Z,10.47
2018-11-10T10:02:51.551Z,11.37
2018-11-10T10:05:20.415Z,11.13
2018-11-10T10:07:50.078Z,11.43
2018-11-10T10:10:19.916Z,10.77
2018-11-10T10:12:49.179Z,10.00
2018-11-10T10:15:18.696Z,9.80
2018-11-10T10:17:47.521Z,10.43
2018-11-10T10:20:17.658Z,10.70
2018-11-10T10:22:47.248Z,10.17
2018-11-10T10:25:16.736Z,10.53
2018-11-10T10:27:46.257Z,9.50
2018-11-10T10:30:17.015Z,10.37
2018-11-10T10:32:46.873Z,10.57
2018-11-10T10:35:16.028Z,9.97
2018-11-10T10:37:45.472Z,9.70
2018-11-10T10:40:14.786Z,9.57
2018-11-10T10:42:43.951Z,9.50
2018-11-10T10:45:17.115Z,10.07
2018-11-10T10:47:45.930Z,10.03
2018-11-10T10:50:16.108Z,9.63
2018-11-10T10:52:46.135Z,10.50
2018-11-10T10:55:15.906Z,9.33
2018-11-10T10:57:45.640Z,10.00
2018-11-10T11:00:19.754Z,9.97
2018-11-10T11:02:53.698Z,9.27
2018-11-10T11:05:27.629Z,9.90
2018-11-10T11:07:57.203Z,10.17
2018-11-10T11:10:25.898Z,9.67
2018-11-10T11:12:54.549Z,9.63
2018-11-10T11:15:23.740Z,10.20
2018-11-10T11:17:52.248Z,10.27
2018-11-10T11:20:21.010Z,9.13
2018-11-10T11:22:49.636Z,9.83
2018-11-10T11:25:18.299Z,9.53
2018-11-10T11:27:46.935Z,9.87
2018-11-10T11:30:15.601Z,9.40
2018-11-10T11:32:44.263Z,9.23
2018-11-10T11:35:14.141Z,9.27
2018-11-10T11:37:43.052Z,8.87
2018-11-10T11:40:14.000Z,8.33
2018-11-10T11:42:43.206Z,9.30
2018-11-10T11:45:12.892Z,9.17
2018-11-10T11:47:42.235Z,9.37
2018-11-10T11:50:12.320Z,8.50
2018-11-10T11:52:41.503Z,8.20
2018-11-10T11:55:10.835Z,8.40
2018-11-10T11:57:39.727Z,8.27
2018-11-10T12:00:10.320Z,8.30
2018-11-10T12:02:39.255Z,8.10
2018-11-10T12:05:09.056Z,8.00
2018-11-10T12:07:37.765Z,8.57
2018-11-10T12:10:07.266Z,7.87
2018-11-10T12:12:36.530Z,7.50
2018-11-10T12:15:06.248Z,8.00
2018-11-10T12:17:34.928Z,7.90
2018-11-10T12:20:03.625Z,7.70
2018-11-10T12:22:33.460Z,7.33
2018-11-10T12:25:02.117Z,7.50
2018-11-10T12:27:30.833Z,8.00
2018-11-10T12:29:59.514Z,8.33
2018-11-10T12:32:28.173Z,7.73
2018-11-10T12:34:56.876Z,7.30
2018-11-10T12:37:25.572Z,7.03
2018-11-10T12:39:54.308Z,7.30
2018-11-10T12:42:22.982Z,7.57
2018-11-10T12:44:51.682Z,7.60
2018-11-10T12:47:21.118Z,7.10
2018-11-10T12:49:50.220Z,7.00
2018-11-10T12:52:20.967Z,7.80
2018-11-10T12:54:49.668Z,6.80
2018-11-10T12:57:18.307Z,6.57
2018-11-10T12:59:46.993Z,7.70
2018-11-10T13:02:15.667Z,6.73
2018-11-10T13:04:44.323Z,7.03
2018-11-10T13:07:13.039Z,7.60
2018-11-10T13:09:41.699Z,6.93
2018-11-10T13:12:10.457Z,7.13
2018-11-10T13:14:39.160Z,6.70
2018-11-10T13:17:07.870Z,7.00
2018-11-10T13:19:36.631Z,6.73
2018-11-10T13:22:05.345Z,6.50
2018-11-10T13:24:34.021Z,6.77
2018-11-10T13:27:02.703Z,6.43
2018-11-10T13:29:31.366Z,6.63
2018-11-10T13:32:00.158Z,6.40
2018-11-10T13:34:29.068Z,6.37
2018-11-10T13:36:57.742Z,6.10
2018-11-10T13:39:26.416Z,6.23
2018-11-10T13:41:55.085Z,6.50
2018-11-10T13:44:23.826Z,6.00
2018-11-10T13:46:52.486Z,6.57
2018-11-10T13:49:21.147Z,6.07
2018-11-10T13:51:50.000Z,6.07
2018-11-10T13:54:18.471Z,6.70
2018-11-10T13:56:47.120Z,5.93
2018-11-10T13:59:15.908Z,6.50
2018-11-10T14:01:44.542Z,5.57
2018-11-10T14:04:13.236Z,5.70
2018-11-10T14:06:41.943Z,6.20
2018-11-10T14:09:11.880Z,6.20
2018-11-10T14:11:41.144Z,5.77
2018-11-10T14:14:10.375Z,6.27
2018-11-10T14:16:39.449Z,6.07
2018-11-10T14:19:08.448Z,5.40
2018-11-10T14:21:37.165Z,5.60
2018-11-10T14:24:06.346Z,5.80
2018-11-10T14:26:34.995Z,5.70
2018-11-10T14:29:04.473Z,5.67
2018-11-10T14:31:33.156Z,5.33
2018-11-10T14:34:01.919Z,5.43
2018-11-10T14:36:30.617Z,5.50
2018-11-10T14:38:58.946Z,5.50
2018-11-10T14:41:27.610Z,5.90
2018-11-10T14:43:56.300Z,5.77
2018-11-10T14:46:25.000Z,5.57
2018-11-10T14:48:53.674Z,5.87
2018-11-10T14:51:22.105Z,5.43
2018-11-10T14:53:50.787Z,5.40
2018-11-10T14:56:19.479Z,5.80
2018-11-10T14:58:47.783Z,6.13
2018-11-10T15:01:16.481Z,5.33
2018-11-10T15:03:45.149Z,5.70
2018-11-10T15:06:13.815Z,5.63
2018-11-10T15:08:42.489Z,5.20
2018-11-10T15:11:11.361Z,5.90
2018-11-10T15:13:40.075Z,5.63
2018-11-10T15:16:09.252Z,5.40
2018-11-10T15:18:37.900Z,5.60
2018-11-10T15:21:06.581Z,5.97
2018-11-10T15:23:35.244Z,5.30
2018-11-10T15:26:03.904Z,5.50
2018-11-10T15:28:32.580Z,5.77
2018-11-10T15:31:01.242Z,5.70
2018-11-10T15:33:30.007Z,5.60
2018-11-10T15:35:58.674Z,5.27
2018-11-10T15:38:27.315Z,5.60
2018-11-10T15:40:55.966Z,4.90
2018-11-10T15:43:24.700Z,5.17
2018-11-10T15:45:53.362Z,5.03
2018-11-10T15:48:22.069Z,4.93
2018-11-10T15:50:50.816Z,5.00
2018-11-10T15:53:20.079Z,5.00
2018-11-10T15:55:48.761Z,4.93
2018-11-10T15:58:23.187Z,5.20
2018-11-10T16:01:01.478Z,5.27
2018-11-10T16:03:40.321Z,5.20
2018-11-10T16:06:10.541Z,5.33
2018-11-10T16:08:39.239Z,5.00
2018-11-10T16:11:20.263Z,5.40
2018-11-10T16:13:51.110Z,5.37
2018-11-10T16:16:19.768Z,4.87
2018-11-10T16:18:48.453Z,5.27
2018-11-10T16:21:17.161Z,5.10
2018-11-10T16:23:45.835Z,5.33
2018-11-10T16:26:14.496Z,5.03
2018-11-10T16:28:43.297Z,5.20
2018-11-10T16:31:11.933Z,5.57
2018-11-10T16:33:40.697Z,5.50
2018-11-10T16:36:09.428Z,5.67
2018-11-10T16:38:39.237Z,5.40
2018-11-10T16:41:09.593Z,5.17
2018-11-10T16:43:38.235Z,5.00
2018-11-10T16:46:06.992Z,5.13
2018-11-10T16:48:35.702Z,4.63
2018-11-10T16:51:04.984Z,5.30
2018-11-10T16:53:37.012Z,5.27
2018-11-10T16:56:09.536Z,4.87
2018-11-10T16:58:41.252Z,4.27
2018-11-10T17:01:11.111Z,5.13
2018-11-10T17:03:40.649Z,5.23
2018-11-10T17:06:09.434Z,5.20
2018-11-10T17:08:39.145Z,5.03
2018-11-10T17:11:07.864Z,5.00
2018-11-10T17:13:36.642Z,5.30
2018-11-10T17:16:05.476Z,4.93
2018-11-10T17:18:34.112Z,5.23
2018-11-10T17:21:02.832Z,5.00
2018-11-10T17:23:31.497Z,5.00
2018-11-10T17:26:00.251Z,4.77
2018-11-10T17:28:28.926Z,4.77
2018-11-10T17:30:58.012Z,5.30
2018-11-10T17:33:26.672Z,4.80
2018-11-10T17:35:55.360Z,4.77
2018-11-10T17:38:24.036Z,5.10
2018-11-10T17:40:52.680Z,4.70
2018-11-10T17:43:21.321Z,4.90
2018-11-10T17:45:50.630Z,5.20
2018-11-10T17:48:19.382Z,4.40
2018-11-10T17:50:48.631Z,5.30
2018-11-10T17:53:17.415Z,5.27
2018-11-10T17:55:46.084Z,5.33
2018-11-10T17:58:14.757Z,5.30
2018-11-10T18:00:43.412Z,5.30
2018-11-10T18:03:12.067Z,5.00
2018-11-10T18:05:40.880Z,5.80
2018-11-10T18:08:09.576Z,4.97
2018-11-10T18:10:38.208Z,4.90
2018-11-10T18:13:21.940Z,5.20
2018-11-10T18:15:51.095Z,5.00
2018-11-10T18:18:20.752Z,4.73
2018-11-10T18:20:50.296Z,5.10
2018-11-10T18:23:21.084Z,4.70
2018-11-10T18:25:50.378Z,5.33
2018-11-10T18:28:19.375Z,5.67
2018-11-10T18:30:48.798Z,4.97
2018-11-10T18:33:20.386Z,4.97
2018-11-10T18:35:50.084Z,5.40
2018-11-10T18:38:41.232Z,5.20
2018-11-10T18:41:10.405Z,5.43
2018-11-10T18:43:40.670Z,5.07
2018-11-10T18:46:11.684Z,5.53
2018-11-10T18:48:43.276Z,5.73
2018-11-10T18:51:13.517Z,5.83
2018-11-10T18:53:49.569Z,5.70
2018-11-10T18:56:23.159Z,5.80
2018-11-10T18:58:58.957Z,5.93
2018-11-10T19:01:27.601Z,6.87
2018-11-10T19:03:56.576Z,6.90
2018-11-10T19:06:25.868Z,8.63
2018-11-10T19:08:55.443Z,9.20
2018-11-10T19:11:25.521Z,8.80
2018-11-10T19:13:55.247Z,9.77
2018-11-10T19:16:26.654Z,9.30
2018-11-10T19:18:55.378Z,9.33
2018-11-10T19:21:24.065Z,10.10
2018-11-10T19:23:52.765Z,10.30
2018-11-10T19:26:21.421Z,11.20
2018-11-10T19:28:50.078Z,11.50
2018-11-10T19:31:18.776Z,11.63
2018-11-10T19:33:47.912Z,10.93
2018-11-10T19:36:16.619Z,12.30
2018-11-10T19:38:45.340Z,11.67
2018-11-10T19:41:14.021Z,12.50
2018-11-10T19:43:42.712Z,11.67
2018-11-10T19:46:11.066Z,13.43
2018-11-10T19:48:40.764Z,12.05
2018-11-10T19:51:12.083Z,12.73
2018-11-10T19:53:41.707Z,13.53
2018-11-10T19:56:11.022Z,13.10
2018-11-10T19:58:39.789Z,12.87
2018-11-10T20:01:09.303Z,14.10
2018-11-10T20:03:38.002Z,14.40
2018-11-10T20:06:06.647Z,16.30
2018-11-10T20:08:35.351Z,14.33
2018-11-10T20:11:03.678Z,16.70
2018-11-10T20:13:32.424Z,15.67
2018-11-10T20:16:01.104Z,16.03
2018-11-10T20:18:29.796Z,15.30
2018-11-10T20:20:58.508Z,15.30
2018-11-10T20:23:27.204Z,16.15
2018-11-10T20:25:55.497Z,16.12
2018-11-10T20:28:24.264Z,16.23
2018-11-10T20:30:53.512Z,15.95
2018-11-10T20:33:22.209Z,15.90
2018-11-10T20:35:50.901Z,14.83
2018-11-10T20:38:19.579Z,15.75
2018-11-10T20:40:49.508Z,15.43
2018-11-10T20:43:18.380Z,15.08
2018-11-10T20:45:47.538Z,14.37
2018-11-10T20:48:16.291Z,16.23
2018-11-10T20:50:44.984Z,17.60
2018-11-10T20:53:13.659Z,16.80
2018-11-10T20:55:42.423Z,16.70
2018-11-10T20:58:11.111Z,22.55
2018-11-10T21:00:39.799Z,22.73
2018-11-10T21:03:08.908Z,24.27
2018-11-10T21:05:37.638Z,22.37
2018-11-10T21:08:06.291Z,21.52
2018-11-10T21:10:34.949Z,21.68
2018-11-10T21:13:03.759Z,20.10
2018-11-10T21:15:32.463Z,22.80
2018-11-10T21:18:01.235Z,24.52
2018-11-10T21:20:29.969Z,24.67
2018-11-10T21:22:58.671Z,24.77
2018-11-10T21:25:27.714Z,26.35
2018-11-10T21:27:56.404Z,27.13
2018-11-10T21:30:25.145Z,26.33
2018-11-10T21:32:55.254Z,27.02
2018-11-10T21:35:25.699Z,28.57
2018-11-10T21:37:54.405Z,28.07
2018-11-10T21:40:23.104Z,27.22
2018-11-10T21:42:51.836Z,27.03
2018-11-10T21:45:20.651Z,27.47
2018-11-10T21:47:49.360Z,26.77
2018-11-10T21:50:19.993Z,27.37
2018-11-10T21:52:48.725Z,25.12
2018-11-10T21:55:20.061Z,25.77
2018-11-10T21:57:49.446Z,25.73
2018-11-10T22:00:20.815Z,24.87
2018-11-10T22:02:51.309Z,23.12
2018-11-10T22:05:20.294Z,23.30
2018-11-10T22:07:49.059Z,23.45
2018-11-10T22:10:19.118Z,23.12
2018-11-10T22:12:47.962Z,22.43
2018-11-10T22:15:19.102Z,23.27
2018-11-10T22:17:48.494Z,21.52
2018-11-10T22:20:18.871Z,21.70
2018-11-10T22:22:48.343Z,21.33
2018-11-10T22:25:17.472Z,21.52
2018-11-10T22:27:48.660Z,20.17
2018-11-10T22:30:18.663Z,19.98
2018-11-10T22:32:48.027Z,20.50
2018-11-10T22:35:17.615Z,19.23
2018-11-10T22:37:46.300Z,18.90
2018-11-10T22:40:16.495Z,17.35
2018-11-10T22:42:45.483Z,19.15
2018-11-10T22:45:15.525Z,19.00
2018-11-10T22:47:44.300Z,17.98
2018-11-10T22:50:18.294Z,17.32
2018-11-10T22:52:47.009Z,16.95
2018-11-10T22:55:15.944Z,16.65
2018-11-10T22:57:44.681Z,16.33
2018-11-10T23:00:16.019Z,16.12
2018-11-10T23:02:47.394Z,18.17
2018-11-10T23:05:16.986Z,15.95
2018-11-10T23:07:46.491Z,15.78
2018-11-10T23:10:15.532Z,15.93
2018-11-10T23:12:45.356Z,14.70
2018-11-10T23:15:14.069Z,13.38
2018-11-10T23:17:42.747Z,14.27
2018-11-10T23:20:12.966Z,14.78
2018-11-10T23:22:41.782Z,14.38
2018-11-10T23:25:12.620Z,12.97
2018-11-10T23:27:41.259Z,13.95
2018-11-10T23:30:15.684Z,13.45
2018-11-10T23:32:44.379Z,13.00
2018-11-10T23:35:13.263Z,12.23
2018-11-10T23:37:41.919Z,12.15
2018-11-10T23:40:12.506Z,12.47
2018-11-10T23:42:41.815Z,11.65
2018-11-10T23:45:11.055Z,12.10
2018-11-10T23:47:39.731Z,11.93
2018-11-10T23:50:10.408Z,10.95
2018-11-10T23:52:39.526Z,11.70
2018-11-10T23:55:09.326Z,11.75
2018-11-10T23:57:38.043Z,11.80
